sensor_id;sensor_type;location;lat;lon;timestamp;pressure;altitude;pressure_sealevel;temperature;humidity
6034;BME280;3045;43.226;27.858;2022-07-24T00:01:00;18774.00;;;22.45;100.00
6034;BME280;3045;43.226;27.858;2022-07-24T00:03:28;12223.00;;;22.16;100.00
6034;BME280;3045;43.226;27.858;2022-07-24T00:05:55;9938.41;;;22.24;100.00
6034;BME280;3045;43.226;27.858;2022-07-24T00:08:22;9937.66;;;22.20;100.00
6034;BME280;3045;43.226;27.858;2022-07-24T00:10:49;12552.69;;;22.28;100.00
6034;BME280;3045;43.226;27.858;2022-07-24T00:13:16;11574.25;;;22.36;100.00
6034;BME280;3045;43.226;27.858;2022-07-24T00:15:44;12875.97;;;22.14;100.00
6034;BME280;3045;43.226;27.858;2022-07-24T00:18:12;11567.44;;;22.07;100.00
6034;BME280;3045;43.226;27.858;2022-07-24T00:20:40;12547.91;;;22.09;100.00
6034;BME280;3045;43.226;27.858;2022-07-24T00:23:07;11239.44;;;22.01;100.00
6034;BME280;3045;43.226;27.858;2022-07-24T00:25:34;11567.19;;;22.06;100.00
6034;BME280;3045;43.226;27.858;2022-07-24T00:28:01;9606.28;;;21.97;100.00
6034;BME280;3045;43.226;27.858;2022-07-24T00:30:28;9279.13;;;21.93;100.00
6034;BME280;3045;43.226;27.858;2022-07-24T00:32:54;8953.75;;;21.98;100.00
6034;BME280;3045;43.226;27.858;2022-07-24T00:35:21;6668.41;;;21.85;100.00
6034;BME280;3045;43.226;27.858;2022-07-24T00:37:50;4383.94;;;21.59;100.00
6034;BME280;3045;43.226;27.858;2022-07-24T00:40:17;-822.66;;;21.49;100.00
6034;BME280;3045;43.226;27.858;2022-07-24T00:42:43;-3422.22;;;21.41;100.00
6034;BME280;3045;43.226;27.858;2022-07-24T00:45:10;-3422.19;;;21.51;100.00
6034;BME280;3045;43.226;27.858;2022-07-24T00:47:37;-3422.19;;;21.63;100.00
6034;BME280;3045;43.226;27.858;2022-07-24T00:50:05;-4071.81;;;21.55;100.00
6034;BME280;3045;43.226;27.858;2022-07-24T00:52:33;-4721.38;;;21.58;100.00
6034;BME280;3045;43.226;27.858;2022-07-24T00:55:02;-8291.31;;;21.56;100.00
6034;BME280;3045;43.226;27.858;2022-07-24T00:57:29;-8291.91;;;21.63;100.00
6034;BME280;3045;43.226;27.858;2022-07-24T00:59:57;-7966.72;;;21.53;100.00
6034;BME280;3045;43.226;27.858;2022-07-24T01:02:24;-8290.63;;;21.47;100.00
6034;BME280;3045;43.226;27.858;2022-07-24T01:04:51;-10559.69;;;21.43;100.00
6034;BME280;3045;43.226;27.858;2022-07-24T01:07:18;-12501.53;;;21.29;100.00
6034;BME280;3045;43.226;27.858;2022-07-24T01:09:45;-13471.78;;;21.22;100.00
6034;BME280;3045;43.226;27.858;2022-07-24T01:12:13;-13795.84;;;21.25;100.00
6034;BME280;3045;43.226;27.858;2022-07-24T01:14:40;-14123.41;;;21.48;100.00
6034;BME280;3045;43.226;27.858;2022-07-24T01:17:07;-13477.72;;;21.60;100.00
6034;BME280;3045;43.226;27.858;2022-07-24T01:19:34;-12183.22;;;21.69;100.00
6034;BME280;3045;43.226;27.858;2022-07-24T01:22:03;-11536.22;;;21.78;100.00
6034;BME280;3045;43.226;27.858;2022-07-24T01:24:30;-9914.72;;;21.75;100.00
6034;BME280;3045;43.226;27.858;2022-07-24T01:26:57;-8940.94;;;21.67;100.00
6034;BME280;3045;43.226;27.858;2022-07-24T01:29:23;-11207.84;;;21.43;100.00
6034;BME280;3045;43.226;27.858;2022-07-24T01:31:50;-13151.50;;;21.45;100.00
6034;BME280;3045;43.226;27.858;2022-07-24T01:34:17;-14446.28;;;21.43;100.00
6034;BME280;3045;43.226;27.858;2022-07-24T01:36:44;-14445.41;;;21.38;100.00
6034;BME280;3045;43.226;27.858;2022-07-24T01:39:12;-15090.97;;;21.29;100.00
6034;BME280;3045;43.226;27.858;2022-07-24T01:41:39;-17032.91;;;21.34;100.00
6034;BME280;3045;43.226;27.858;2022-07-24T01:44:06;-15739.69;;;21.37;100.00
6034;BME280;3045;43.226;27.858;2022-07-24T01:46:33;-15739.09;;;21.34;100.00
6034;BME280;3045;43.226;27.858;2022-07-24T01:49:00;-16385.34;;;21.31;100.00
6034;BME280;3045;43.226;27.858;2022-07-24T01:51:27;-17353.72;;;21.23;100.00
6034;BME280;3045;43.226;27.858;2022-07-24T01:53:54;-17357.06;;;21.38;100.00
6034;BME280;3045;43.226;27.858;2022-07-24T01:56:22;-15739.19;;;21.35;100.00
6034;BME280;3045;43.226;27.858;2022-07-24T01:58:49;-14769.13;;;21.38;100.00
6034;BME280;3045;43.226;27.858;2022-07-24T02:01:16;-15417.19;;;21.43;100.00
6034;BME280;3045;43.226;27.858;2022-07-24T02:03:44;-15416.25;;;21.38;100.00
6034;BME280;3045;43.226;27.858;2022-07-24T02:06:12;-17035.28;;;21.46;100.00
6034;BME280;3045;43.226;27.858;2022-07-24T02:08:39;-14774.09;;;21.66;100.00
6034;BME280;3045;43.226;27.858;2022-07-24T02:11:06;-13799.16;;;21.45;100.00
6034;BME280;3045;43.226;27.858;2022-07-24T02:13:34;-12179.94;;;21.45;100.00
6034;BME280;3045;43.226;27.858;2022-07-24T02:16:01;-13475.06;;;21.43;100.00
6034;BME280;3045;43.226;27.858;2022-07-24T02:18:28;-13797.75;;;21.36;100.00
6034;BME280;3045;43.226;27.858;2022-07-24T02:20:55;-13800.41;;;21.53;100.00
6034;BME280;3045;43.226;27.858;2022-07-24T02:23:22;-13796.34;;;21.28;100.00
6034;BME280;3045;43.226;27.858;2022-07-24T02:25:49;-14443.91;;;21.29;100.00
6034;BME280;3045;43.226;27.858;2022-07-24T02:28:17;-14119.25;;;21.23;100.00
6034;BME280;3045;43.226;27.858;2022-07-24T02:30:48;-14766.41;;;21.23;100.00
6034;BME280;3045;43.226;27.858;2022-07-24T02:33:16;-16703.34;;;21.05;100.00
6034;BME280;3045;43.226;27.858;2022-07-24T02:35:43;-17669.25;;;20.88;100.00
6034;BME280;3045;43.226;27.858;2022-07-24T02:38:10;-18313.69;;;20.73;100.00
6034;BME280;3045;43.226;27.858;2022-07-24T02:40:37;-18317.03;;;20.87;100.00
6034;BME280;3045;43.226;27.858;2022-07-24T02:43:04;-18314.16;;;20.75;100.00
6034;BME280;3045;43.226;27.858;2022-07-24T02:45:32;-18312.84;;;20.70;100.00
6034;BME280;3045;43.226;27.858;2022-07-24T02:48:01;-18315.94;;;20.83;100.00
6034;BME280;3045;43.226;27.858;2022-07-24T02:50:30;-18316.91;;;20.87;100.00
6034;BME280;3045;43.226;27.858;2022-07-24T02:52:58;-18310.00;;;20.58;100.00
6034;BME280;3045;43.226;27.858;2022-07-24T02:55:25;-18311.41;;;20.64;100.00
6034;BME280;3045;43.226;27.858;2022-07-24T02:57:53;-18309.03;;;20.54;100.00
6034;BME280;3045;43.226;27.858;2022-07-24T03:00:20;-18312.84;;;20.70;100.00
6034;BME280;3045;43.226;27.858;2022-07-24T03:02:48;-18310.00;;;20.58;100.00
6034;BME280;3045;43.226;27.858;2022-07-24T03:05:16;-18313.09;;;20.71;100.00
6034;BME280;3045;43.226;27.858;2022-07-24T03:07:43;-18315.94;;;20.83;100.00
6034;BME280;3045;43.226;27.858;2022-07-24T03:10:11;-18318.44;;;20.93;100.00
6034;BME280;3045;43.226;27.858;2022-07-24T03:12:38;-18318.81;;;20.95;100.00
6034;BME280;3045;43.226;27.858;2022-07-24T03:15:06;-18320.59;;;21.03;100.00
6034;BME280;3045;43.226;27.858;2022-07-24T03:17:33;-18316.91;;;20.87;100.00
6034;BME280;3045;43.226;27.858;2022-07-24T03:20:00;-18320.22;;;21.01;100.00
6034;BME280;3045;43.226;27.858;2022-07-24T03:22:29;-18322.84;;;21.12;100.00
6034;BME280;3045;43.226;27.858;2022-07-24T03:24:55;-18329.75;;;21.41;100.00
6034;BME280;3045;43.226;27.858;2022-07-24T03:27:22;-18015.84;;;21.91;100.00
6034;BME280;3045;43.226;27.858;2022-07-24T03:29:49;-9921.28;;;22.40;100.00
6034;BME280;3045;43.226;27.858;2022-07-24T03:32:16;-4073.03;;;22.93;100.00
6034;BME280;3045;43.226;27.858;2022-07-24T03:34:43;-7003.44;;;23.34;100.00
6034;BME280;3045;43.226;27.858;2022-07-24T03:37:10;-3747.66;;;23.41;100.00
6034;BME280;3045;43.226;27.858;2022-07-24T03:39:38;2121.19;;;23.37;100.00
6034;BME280;3045;43.226;27.858;2022-07-24T03:42:05;5712.56;;;23.35;100.00
6034;BME280;3045;43.226;27.858;2022-07-24T03:44:32;1795.38;;;23.43;100.00
6034;BME280;3045;43.226;27.858;2022-07-24T03:46:59;1470.16;;;23.56;100.00
6034;BME280;3045;43.226;27.858;2022-07-24T03:49:26;1796.97;;;23.61;100.00
6034;BME280;3045;43.226;27.858;2022-07-24T03:51:52;1470.66;;;23.63;100.00
6034;BME280;3045;43.226;27.858;2022-07-24T03:54:19;1797.34;;;23.66;100.00
6034;BME280;3045;43.226;27.858;2022-07-24T03:56:48;7683.00;;;23.89;100.00
6034;BME280;3045;43.226;27.858;2022-07-24T03:59:15;22785.13;;;24.33;100.00
6034;BME280;3045;43.226;27.858;2022-07-24T04:01:42;24749.69;;;24.12;100.00
6034;BME280;3045;43.226;27.858;2022-07-24T04:04:09;17847.56;;;24.09;100.00
6034;BME280;3045;43.226;27.858;2022-07-24T04:06:36;28708.81;;;24.30;100.00
6034;BME280;3045;43.226;27.858;2022-07-24T04:09:04;25751.16;;;24.43;100.00
6034;BME280;3045;43.226;27.858;2022-07-24T04:11:31;32029.09;;;24.72;100.00
6034;BME280;3045;43.226;27.858;2022-07-24T04:13:59;35676.31;;;24.96;100.00
6034;BME280;3045;43.226;27.858;2022-07-24T04:16:26;49939.25;;;25.22;100.00
6034;BME280;3045;43.226;27.858;2022-07-24T04:18:53;69283.13;;;25.48;100.00
6034;BME280;3045;43.226;27.858;2022-07-24T04:21:20;80677.38;;;25.61;100.00
6034;BME280;3045;43.226;27.858;2022-07-24T04:23:47;99202.94;;;25.84;100.00
6034;BME280;3045;43.226;27.858;2022-07-24T04:26:14;121245.88;;;26.13;100.00
6034;BME280;3045;43.226;27.858;2022-07-24T04:28:41;131304.16;;;26.40;100.00
6034;BME280;3045;43.226;27.858;2022-07-24T04:31:09;146569.31;;;26.47;100.00
6034;BME280;3045;43.226;27.858;2022-07-24T04:33:37;152778.91;;;26.79;100.00
6034;BME280;3045;43.226;27.858;2022-07-24T04:36:04;152822.44;;;26.96;100.00
6034;BME280;3045;43.226;27.858;2022-07-24T04:38:32;152877.44;;;27.18;100.00
6034;BME280;3045;43.226;27.858;2022-07-24T04:40:59;152917.06;;;27.34;100.00
6034;BME280;3045;43.226;27.858;2022-07-24T04:43:26;152972.16;;;27.55;100.00
6034;BME280;3045;43.226;27.858;2022-07-24T04:45:53;152964.50;;;27.52;100.00
6034;BME280;3045;43.226;27.858;2022-07-24T04:48:21;152996.47;;;27.65;100.00
6034;BME280;3045;43.226;27.858;2022-07-24T04:50:48;152931.16;;;27.39;100.00
6034;BME280;3045;43.226;27.858;2022-07-24T04:53:15;153022.09;;;27.75;100.00
6034;BME280;3045;43.226;27.858;2022-07-24T04:55:41;153066.84;;;27.93;100.00
6034;BME280;3045;43.226;27.858;2022-07-24T04:58:08;153124.50;;;28.15;100.00
6034;BME280;3045;43.226;27.858;2022-07-24T05:00:35;153171.88;;;28.34;100.00
6034;BME280;3045;43.226;27.858;2022-07-24T05:03:02;153191.06;;;28.42;100.00
6034;BME280;3045;43.226;27.858;2022-07-24T05:05:31;153235.91;;;28.59;100.00
6034;BME280;3045;43.226;27.858;2022-07-24T05:07:57;153284.56;;;28.79;100.00
6034;BME280;3045;43.226;27.858;2022-07-24T05:10:24;153323.03;;;28.94;100.00
6034;BME280;3045;43.226;27.858;2022-07-24T05:12:51;153269.25;;;28.73;100.00
6034;BME280;3045;43.226;27.858;2022-07-24T05:15:18;153265.38;;;28.71;100.00
6034;BME280;3045;43.226;27.858;2022-07-24T05:17:45;153330.69;;;28.97;100.00
6034;BME280;3045;43.226;27.858;2022-07-24T05:20:13;153376.81;;;29.15;100.00
6034;BME280;3045;43.226;27.858;2022-07-24T05:22:41;153353.75;;;29.06;100.00
6034;BME280;3045;43.226;27.858;2022-07-24T05:25:08;153404.97;;;29.26;100.00
6034;BME280;3045;43.226;27.858;2022-07-24T05:27:36;153394.72;;;29.22;100.00
6034;BME280;3045;43.226;27.858;2022-07-24T05:30:03;153435.75;;;29.38;100.00
6034;BME280;3045;43.226;27.858;2022-07-24T05:32:30;153487.00;;;29.59;100.00
6034;BME280;3045;43.226;27.858;2022-07-24T05:34:57;153480.59;;;29.56;100.00
6034;BME280;3045;43.226;27.858;2022-07-24T05:37:23;153504.94;;;29.66;100.00
6034;BME280;3045;43.226;27.858;2022-07-24T05:39:52;153475.44;;;29.54;100.00
6034;BME280;3045;43.226;27.858;2022-07-24T05:42:19;153410.06;;;29.28;100.00
6034;BME280;3045;43.226;27.858;2022-07-24T05:44:45;153481.88;;;29.57;100.00
6034;BME280;3045;43.226;27.858;2022-07-24T05:47:12;153504.94;;;29.66;100.00
6034;BME280;3045;43.226;27.858;2022-07-24T05:49:39;153570.34;;;29.91;100.00
6034;BME280;3045;43.226;27.858;2022-07-24T05:52:06;153602.38;;;30.04;100.00
6034;BME280;3045;43.226;27.858;2022-07-24T05:54:33;153686.97;;;30.37;100.00
6034;BME280;3045;43.226;27.858;2022-07-24T05:57:01;153663.88;;;30.28;100.00
6034;BME280;3045;43.226;27.858;2022-07-24T05:59:28;153715.19;;;30.49;100.00
6034;BME280;3045;43.226;27.858;2022-07-24T06:01:55;153789.53;;;30.78;100.00
6034;BME280;3045;43.226;27.858;2022-07-24T06:04:22;153821.59;;;30.91;100.00
6034;BME280;3045;43.226;27.858;2022-07-24T06:06:49;153861.44;;;31.06;100.00
6034;BME280;3045;43.226;27.858;2022-07-24T06:09:15;153903.75;;;31.23;100.00
6034;BME280;3045;43.226;27.858;2022-07-24T06:11:42;154101.28;;;32.01;100.00
6034;BME280;3045;43.226;27.858;2022-07-24T06:14:11;153897.28;;;31.20;100.00
6034;BME280;3045;43.226;27.858;2022-07-24T06:16:38;153887.03;;;31.16;100.00
6034;BME280;3045;43.226;27.858;2022-07-24T06:19:05;154048.69;;;31.80;100.00
6034;BME280;3045;43.226;27.858;2022-07-24T06:21:31;154071.78;;;31.89;100.00
6034;BME280;3045;43.226;27.858;2022-07-24T06:23:58;154100.00;;;32.00;100.00
6034;BME280;3045;43.226;27.858;2022-07-24T06:26:25;154162.97;;;32.25;100.00
6034;BME280;3045;43.226;27.858;2022-07-24T06:28:52;154212.97;;;32.45;100.00
6034;BME280;3045;43.226;27.858;2022-07-24T06:31:20;154236.09;;;32.54;100.00
6034;BME280;3045;43.226;27.858;2022-07-24T06:33:47;154228.34;;;32.51;100.00
6034;BME280;3045;43.226;27.858;2022-07-24T06:36:14;154156.50;;;32.23;100.00
6034;BME280;3045;43.226;27.858;2022-07-24T06:38:44;154147.53;;;32.19;100.00
6034;BME280;3045;43.226;27.858;2022-07-24T06:41:10;154310.56;;;32.83;100.00
6034;BME280;3045;43.226;27.858;2022-07-24T06:43:37;154554.59;;;33.79;100.00
6034;BME280;3045;43.226;27.858;2022-07-24T06:46:04;154688.25;;;34.32;100.00
6034;BME280;3045;43.226;27.858;2022-07-24T06:48:33;154492.94;;;33.55;98.75
6034;BME280;3045;43.226;27.858;2022-07-24T06:51:00;154462.13;;;33.43;100.00
6034;BME280;3045;43.226;27.858;2022-07-24T06:53:27;154530.19;;;33.70;94.29
6034;BME280;3045;43.226;27.858;2022-07-24T06:55:53;154243.78;;;32.57;100.00
6034;BME280;3045;43.226;27.858;2022-07-24T06:58:20;154409.47;;;33.22;100.00
6034;BME280;3045;43.226;27.858;2022-07-24T07:00:48;154257.97;;;32.63;100.00
6034;BME280;3045;43.226;27.858;2022-07-24T07:03:16;154169.34;;;32.28;100.00
6034;BME280;3045;43.226;27.858;2022-07-24T07:05:45;154177.03;;;32.31;100.00
6034;BME280;3045;43.226;27.858;2022-07-24T07:08:12;154251.47;;;32.60;100.00
6034;BME280;3045;43.226;27.858;2022-07-24T07:10:39;154328.53;;;32.90;100.00
6034;BME280;3045;43.226;27.858;2022-07-24T07:13:06;154455.66;;;33.40;100.00
6034;BME280;3045;43.226;27.858;2022-07-24T07:15:33;154486.47;;;33.52;100.00
6034;BME280;3045;43.226;27.858;2022-07-24T07:18:00;154397.91;;;33.18;100.00
6034;BME280;3045;43.226;27.858;2022-07-24T07:20:27;154300.31;;;32.79;100.00
6034;BME280;3045;43.226;27.858;2022-07-24T07:22:55;154261.78;;;32.64;100.00
6034;BME280;3045;43.226;27.858;2022-07-24T07:25:22;154252.75;;;32.60;100.00
6034;BME280;3045;43.226;27.858;2022-07-24T07:27:49;154302.88;;;32.80;100.00
6034;BME280;3045;43.226;27.858;2022-07-24T07:30:16;154187.31;;;32.35;100.00
6034;BME280;3045;43.226;27.858;2022-07-24T07:32:43;154195.03;;;32.38;99.21
6034;BME280;3045;43.226;27.858;2022-07-24T07:35:10;154318.25;;;32.86;97.03
6034;BME280;3045;43.226;27.858;2022-07-24T07:37:36;154290.03;;;32.75;93.49
6034;BME280;3045;43.226;27.858;2022-07-24T07:40:06;154238.63;;;32.55;94.03
6034;BME280;3045;43.226;27.858;2022-07-24T07:42:33;154308.00;;;32.82;96.72
6034;BME280;3045;43.226;27.858;2022-07-24T07:45:00;154241.19;;;32.56;91.53
6034;BME280;3045;43.226;27.858;2022-07-24T07:47:27;154318.25;;;32.86;91.01
6034;BME280;3045;43.226;27.858;2022-07-24T07:49:54;154334.97;;;32.93;90.83
6034;BME280;3045;43.226;27.858;2022-07-24T07:52:23;154381.16;;;33.11;95.95
6034;BME280;3045;43.226;27.858;2022-07-24T07:54:50;154410.78;;;33.23;95.39
6034;BME280;3045;43.226;27.858;2022-07-24T07:57:19;154406.91;;;33.21;94.34
6034;BME280;3045;43.226;27.858;2022-07-24T07:59:46;154356.81;;;33.01;72.36
6034;BME280;3045;43.226;27.858;2022-07-24T08:02:13;154477.50;;;33.49;55.37
6034;BME280;3045;43.226;27.858;2022-07-24T08:04:41;154519.91;;;33.66;78.91
6034;BME280;3045;43.226;27.858;2022-07-24T08:07:08;154590.56;;;33.93;84.54
6034;BME280;3045;43.226;27.858;2022-07-24T08:09:35;154654.84;;;34.19;68.51
6034;BME280;3045;43.226;27.858;2022-07-24T08:12:03;154762.75;;;34.61;62.64
6034;BME280;3045;43.226;27.858;2022-07-24T08:14:31;154839.91;;;34.92;70.49
6034;BME280;3045;43.226;27.858;2022-07-24T08:16:58;154884.91;;;35.09;58.29
6034;BME280;3045;43.226;27.858;2022-07-24T08:19:25;154865.59;;;35.02;64.56
6034;BME280;3045;43.226;27.858;2022-07-24T08:21:52;154914.50;;;35.21;60.84
6034;BME280;3045;43.226;27.858;2022-07-24T08:24:19;154842.44;;;34.93;54.02
6034;BME280;3045;43.226;27.858;2022-07-24T08:26:47;154788.47;;;34.71;57.80
6034;BME280;3045;43.226;27.858;2022-07-24T08:29:14;154680.50;;;34.29;58.47
6034;BME280;3045;43.226;27.858;2022-07-24T08:31:42;154665.13;;;34.23;68.37
6034;BME280;3045;43.226;27.858;2022-07-24T08:34:09;154567.44;;;33.84;68.74
6034;BME280;3045;43.226;27.858;2022-07-24T08:36:36;154543.03;;;33.75;66.17
6034;BME280;3045;43.226;27.858;2022-07-24T08:39:04;154535.34;;;33.72;60.21
6034;BME280;3045;43.226;27.858;2022-07-24T08:41:31;154392.75;;;33.16;64.72
6034;BME280;3045;43.226;27.858;2022-07-24T08:44:01;154387.66;;;33.14;63.26
6034;BME280;3045;43.226;27.858;2022-07-24T08:46:28;154346.47;;;32.97;64.69
6034;BME280;3045;43.226;27.858;2022-07-24T08:48:57;154379.88;;;33.11;64.40
6034;BME280;3045;43.226;27.858;2022-07-24T08:51:31;154297.72;;;32.78;57.50
6034;BME280;3045;43.226;27.858;2022-07-24T08:53:58;154256.66;;;32.62;62.36
6034;BME280;3045;43.226;27.858;2022-07-24T08:56:27;154257.97;;;32.63;66.66
6034;BME280;3045;43.226;27.858;2022-07-24T08:58:55;154256.66;;;32.62;63.64
6034;BME280;3045;43.226;27.858;2022-07-24T09:01:22;154230.94;;;32.52;64.09
6034;BME280;3045;43.226;27.858;2022-07-24T09:03:49;154234.81;;;32.53;66.09
6034;BME280;3045;43.226;27.858;2022-07-24T09:06:17;154164.19;;;32.26;72.91
6034;BME280;3045;43.226;27.858;2022-07-24T09:08:57;154130.84;;;32.12;75.51
6034;BME280;3045;43.226;27.858;2022-07-24T09:11:24;154106.44;;;32.03;87.91
6034;BME280;3045;43.226;27.858;2022-07-24T09:13:52;154150.13;;;32.20;85.66
6034;BME280;3045;43.226;27.858;2022-07-24T09:16:36;154189.88;;;32.36;76.05
6034;BME280;3045;43.226;27.858;2022-07-24T09:19:05;154156.50;;;32.23;74.39
6034;BME280;3045;43.226;27.858;2022-07-24T09:21:35;154214.28;;;32.45;91.24
6034;BME280;3045;43.226;27.858;2022-07-24T09:24:12;154212.97;;;32.45;79.61
6034;BME280;3045;43.226;27.858;2022-07-24T09:26:43;154239.91;;;32.55;84.69
6034;BME280;3045;43.226;27.858;2022-07-24T09:29:11;154170.66;;;32.28;85.13
6034;BME280;3045;43.226;27.858;2022-07-24T09:31:56;154152.66;;;32.21;90.07
6034;BME280;3045;43.226;27.858;2022-07-24T09:34:24;154134.69;;;32.14;91.64
6034;BME280;3045;43.226;27.858;2022-07-24T09:37:00;154174.47;;;32.30;90.76
6034;BME280;3045;43.226;27.858;2022-07-24T09:39:31;154141.16;;;32.16;87.00
6034;BME280;3045;43.226;27.858;2022-07-24T09:42:00;154088.44;;;31.96;95.73
6034;BME280;3045;43.226;27.858;2022-07-24T09:44:27;153999.97;;;31.61;100.00
6034;BME280;3045;43.226;27.858;2022-07-24T09:46:57;153996.09;;;31.59;98.86
6034;BME280;3045;43.226;27.858;2022-07-24T09:49:25;154010.22;;;31.65;98.25
6034;BME280;3045;43.226;27.858;2022-07-24T09:52:12;153978.13;;;31.52;100.00
6034;BME280;3045;43.226;27.858;2022-07-24T09:54:40;153921.66;;;31.30;100.00
6034;BME280;3045;43.226;27.858;2022-07-24T09:57:22;153856.28;;;31.04;100.00
6034;BME280;3045;43.226;27.858;2022-07-24T09:59:52;153815.19;;;30.88;100.00
6034;BME280;3045;43.226;27.858;2022-07-24T10:02:21;153849.88;;;31.02;100.00
6034;BME280;3045;43.226;27.858;2022-07-24T10:04:49;153890.91;;;31.18;100.00
6034;BME280;3045;43.226;27.858;2022-07-24T10:07:19;153876.78;;;31.12;100.00
6034;BME280;3045;43.226;27.858;2022-07-24T10:09:48;153942.19;;;31.38;100.00
6034;BME280;3045;43.226;27.858;2022-07-24T10:12:18;153962.72;;;31.46;100.00
6034;BME280;3045;43.226;27.858;2022-07-24T10:14:48;153833.13;;;30.95;100.00
6034;BME280;3045;43.226;27.858;2022-07-24T10:17:16;153807.53;;;30.85;100.00
6034;BME280;3045;43.226;27.858;2022-07-24T10:19:45;153710.09;;;30.47;100.00
6034;BME280;3045;43.226;27.858;2022-07-24T10:22:13;153703.66;;;30.44;100.00
6034;BME280;3045;43.226;27.858;2022-07-24T10:24:56;153798.50;;;30.81;100.00
6034;BME280;3045;43.226;27.858;2022-07-24T10:27:28;153793.41;;;30.79;100.00
6034;BME280;3045;43.226;27.858;2022-07-24T10:29:57;153766.47;;;30.69;100.00
6034;BME280;3045;43.226;27.858;2022-07-24T10:32:25;153671.56;;;30.31;100.00
6034;BME280;3045;43.226;27.858;2022-07-24T10:35:02;153721.59;;;30.51;100.00
6034;BME280;3045;43.226;27.858;2022-07-24T10:37:39;153837.00;;;30.97;100.00
6034;BME280;3045;43.226;27.858;2022-07-24T10:40:17;153869.09;;;31.09;100.00
6034;BME280;3045;43.226;27.858;2022-07-24T10:43:14;153708.81;;;30.46;100.00
6034;BME280;3045;43.226;27.858;2022-07-24T10:45:43;153658.72;;;30.26;100.00
6034;BME280;3045;43.226;27.858;2022-07-24T10:48:30;153630.56;;;30.15;100.00
6034;BME280;3045;43.226;27.858;2022-07-24T10:51:03;153580.59;;;29.96;100.00
6034;BME280;3045;43.226;27.858;2022-07-24T10:53:47;153599.81;;;30.03;100.00
6034;BME280;3045;43.226;27.858;2022-07-24T10:56:18;153630.56;;;30.15;100.00
6034;BME280;3045;43.226;27.858;2022-07-24T10:59:03;153548.50;;;29.83;100.00
6034;BME280;3045;43.226;27.858;2022-07-24T11:01:37;153524.16;;;29.73;100.00
6034;BME280;3045;43.226;27.858;2022-07-24T11:04:27;153492.13;;;29.61;100.00
6034;BME280;3045;43.226;27.858;2022-07-24T11:06:56;153376.81;;;29.15;100.00
6034;BME280;3045;43.226;27.858;2022-07-24T11:09:27;153344.78;;;29.02;100.00
6034;BME280;3045;43.226;27.858;2022-07-24T11:12:06;153302.50;;;28.86;100.00
6034;BME280;3045;43.226;27.858;2022-07-24T11:14:49;153212.84;;;28.50;100.00
6034;BME280;3045;43.226;27.858;2022-07-24T11:17:36;153174.41;;;28.35;100.00
6034;BME280;3045;43.226;27.858;2022-07-24T11:20:05;153118.13;;;28.13;100.00
6034;BME280;3045;43.226;27.858;2022-07-24T11:22:45;153164.16;;;28.31;100.00
6034;BME280;3045;43.226;27.858;2022-07-24T11:25:15;153198.75;;;28.45;100.00
6034;BME280;3045;43.226;27.858;2022-07-24T11:27:49;153220.50;;;28.53;100.00
6034;BME280;3045;43.226;27.858;2022-07-24T11:30:19;153144.97;;;28.24;100.00
6034;BME280;3045;43.226;27.858;2022-07-24T11:32:46;153188.50;;;28.41;100.00
6034;BME280;3045;43.226;27.858;2022-07-24T11:35:14;153087.31;;;28.01;100.00
6034;BME280;3045;43.226;27.858;2022-07-24T11:37:43;153055.31;;;27.88;100.00
6034;BME280;3045;43.226;27.858;2022-07-24T11:40:15;153020.81;;;27.75;100.00
6034;BME280;3045;43.226;27.858;2022-07-24T11:42:44;153048.94;;;27.86;100.00
6034;BME280;3045;43.226;27.858;2022-07-24T11:45:11;153014.38;;;27.72;100.00
6034;BME280;3045;43.226;27.858;2022-07-24T11:47:38;153029.75;;;27.78;100.00
6034;BME280;3045;43.226;27.858;2022-07-24T11:50:07;153008.00;;;27.69;100.00
6034;BME280;3045;43.226;27.858;2022-07-24T11:52:36;111312.34;;;27.40;100.00
6034;BME280;3045;43.226;27.858;2022-07-24T11:55:06;97804.47;;;27.60;100.00
6034;BME280;3045;43.226;27.858;2022-07-24T11:57:35;80592.81;;;27.47;100.00
6034;BME280;3045;43.226;27.858;2022-07-24T12:00:07;82965.44;;;27.60;100.00
6034;BME280;3045;43.226;27.858;2022-07-24T12:02:35;42151.16;;;27.57;100.00
6034;BME280;3045;43.226;27.858;2022-07-24T12:05:02;75892.09;;;27.50;100.00
6034;BME280;3045;43.226;27.858;2022-07-24T12:07:29;104217.91;;;27.52;100.00
6034;BME280;3045;43.226;27.858;2022-07-24T12:09:58;91729.38;;;27.62;100.00
6034;BME280;3045;43.226;27.858;2022-07-24T12:12:27;97122.88;;;27.57;100.00
6034;BME280;3045;43.226;27.858;2022-07-24T12:15:01;98460.59;;;27.48;100.00
6034;BME280;3045;43.226;27.858;2022-07-24T12:17:32;133467.38;;;27.58;100.00
6034;BME280;3045;43.226;27.858;2022-07-24T12:20:00;153004.13;;;27.68;100.00
6034;BME280;3045;43.226;27.858;2022-07-24T12:22:28;128359.59;;;27.62;100.00
6034;BME280;3045;43.226;27.858;2022-07-24T12:24:56;138944.66;;;27.62;100.00
6034;BME280;3045;43.226;27.858;2022-07-24T12:27:38;153028.47;;;27.78;100.00
6034;BME280;3045;43.226;27.858;2022-07-24T12:30:20;152964.50;;;27.52;100.00
6034;BME280;3045;43.226;27.858;2022-07-24T12:32:58;152979.81;;;27.58;100.00
6034;BME280;3045;43.226;27.858;2022-07-24T12:35:27;153013.09;;;27.71;100.00
6034;BME280;3045;43.226;27.858;2022-07-24T12:37:54;152984.97;;;27.60;100.00
6034;BME280;3045;43.226;27.858;2022-07-24T12:40:32;152981.09;;;27.59;100.00
6034;BME280;3045;43.226;27.858;2022-07-24T12:43:09;153009.28;;;27.70;100.00
6034;BME280;3045;43.226;27.858;2022-07-24T12:45:36;152960.63;;;27.51;100.00
6034;BME280;3045;43.226;27.858;2022-07-24T12:48:25;153029.75;;;27.78;100.00
6034;BME280;3045;43.226;27.858;2022-07-24T12:51:03;153041.28;;;27.83;100.00
6034;BME280;3045;43.226;27.858;2022-07-24T12:53:34;153008.00;;;27.69;100.00
6034;BME280;3045;43.226;27.858;2022-07-24T12:56:06;152996.47;;;27.65;100.00
6034;BME280;3045;43.226;27.858;2022-07-24T12:59:06;152993.91;;;27.64;100.00
6034;BME280;3045;43.226;27.858;2022-07-24T13:01:48;153027.19;;;27.77;100.00
6034;BME280;3045;43.226;27.858;2022-07-24T13:04:17;153018.22;;;27.74;100.00